sensor_id;sensor_type;location;lat;lon;timestamp;pressure;altitude;pressure_sealevel;temperature;humidity
9077;BME280;4574;51.072;17.174;2022-10-16T00:01:48;100114.03;;;14.19;100.00
9077;BME280;4574;51.072;17.174;2022-10-16T00:04:17;100106.41;;;14.08;100.00
9077;BME280;4574;51.072;17.174;2022-10-16T00:06:47;100126.50;;;14.10;100.00
9077;BME280;4574;51.072;17.174;2022-10-16T00:09:15;100122.38;;;14.08;100.00
9077;BME280;4574;51.072;17.174;2022-10-16T00:11:44;100125.69;;;14.10;100.00
9077;BME280;4574;51.072;17.174;2022-10-16T00:14:14;100126.03;;;14.07;100.00
9077;BME280;4574;51.072;17.174;2022-10-16T00:16:43;100110.25;;;13.97;100.00
9077;BME280;4574;51.072;17.174;2022-10-16T00:19:12;100121.06;;;14.04;100.00
9077;BME280;4574;51.072;17.174;2022-10-16T00:21:41;100119.19;;;14.04;100.00
9077;BME280;4574;51.072;17.174;2022-10-16T00:24:12;100120.72;;;14.07;100.00
9077;BME280;4574;51.072;17.174;2022-10-16T00:26:40;100125.84;;;14.08;100.00
9077;BME280;4574;51.072;17.174;2022-10-16T00:29:09;100116.38;;;14.06;100.00
9077;BME280;4574;51.072;17.174;2022-10-16T00:31:38;100128.34;;;14.10;100.00
9077;BME280;4574;51.072;17.174;2022-10-16T00:34:06;100124.84;;;14.09;100.00
9077;BME280;4574;51.072;17.174;2022-10-16T00:36:35;100118.84;;;14.07;100.00
9077;BME280;4574;51.072;17.174;2022-10-16T00:39:04;100121.72;;;14.06;100.00
9077;BME280;4574;51.072;17.174;2022-10-16T00:41:34;100119.84;;;14.06;100.00
9077;BME280;4574;51.072;17.174;2022-10-16T00:44:41;100117.38;;;14.05;100.00
9077;BME280;4574;51.072;17.174;2022-10-16T00:46:53;100119.38;;;14.03;100.00
9077;BME280;4574;51.072;17.174;2022-10-16T00:49:22;100129.69;;;14.06;100.00
9077;BME280;4574;51.072;17.174;2022-10-16T00:51:52;100121.06;;;14.04;100.00
9077;BME280;4574;51.072;17.174;2022-10-16T00:54:23;100115.41;;;13.99;100.00
9077;BME280;4574;51.072;17.174;2022-10-16T00:56:56;100122.06;;;14.03;100.00
9077;BME280;4574;51.072;17.174;2022-10-16T00:59:27;100126.72;;;14.01;100.00
9077;BME280;4574;51.072;17.174;2022-10-16T01:01:57;100124.72;;;14.03;100.00
9077;BME280;4574;51.072;17.174;2022-10-16T01:04:29;100129.38;;;14.01;100.00
9077;BME280;4574;51.072;17.174;2022-10-16T01:07:05;100127.53;;;14.01;100.00
9077;BME280;4574;51.072;17.174;2022-10-16T01:09:40;100123.41;;;13.99;100.00
9077;BME280;4574;51.072;17.174;2022-10-16T01:12:20;100125.06;;;14.00;100.00
9077;BME280;4574;51.072;17.174;2022-10-16T01:14:54;100126.41;;;13.96;100.00
9077;BME280;4574;51.072;17.174;2022-10-16T01:17:29;100123.72;;;13.96;100.00
9077;BME280;4574;51.072;17.174;2022-10-16T01:20:08;100122.25;;;13.85;100.00
9077;BME280;4574;51.072;17.174;2022-10-16T01:22:44;100100.50;;;13.82;100.00
9077;BME280;4574;51.072;17.174;2022-10-16T01:25:22;100109.13;;;13.84;100.00
9077;BME280;4574;51.072;17.174;2022-10-16T01:27:55;100124.75;;;13.87;100.00
9077;BME280;4574;51.072;17.174;2022-10-16T01:30:27;100126.41;;;13.88;100.00
9077;BME280;4574;51.072;17.174;2022-10-16T01:33:02;100135.06;;;13.90;100.00
9077;BME280;4574;51.072;17.174;2022-10-16T01:35:35;100135.88;;;13.90;100.00
9077;BME280;4574;51.072;17.174;2022-10-16T01:38:10;100127.75;;;13.92;100.00
9077;BME280;4574;51.072;17.174;2022-10-16T01:40:45;100110.09;;;13.91;100.00
9077;BME280;4574;51.072;17.174;2022-10-16T01:43:18;100113.09;;;13.96;100.00
9077;BME280;4574;51.072;17.174;2022-10-16T01:45:48;100117.72;;;14.02;100.00
9077;BME280;4574;51.072;17.174;2022-10-16T01:48:18;100106.75;;;14.05;100.00
9077;BME280;4574;51.072;17.174;2022-10-16T01:50:56;100113.41;;;14.01;100.00
9077;BME280;4574;51.072;17.174;2022-10-16T01:53:27;100118.22;;;13.97;100.00
9077;BME280;4574;51.072;17.174;2022-10-16T01:55:56;100118.06;;;13.99;100.00
9077;BME280;4574;51.072;17.174;2022-10-16T01:58:29;100125.41;;;13.97;100.00
9077;BME280;4574;51.072;17.174;2022-10-16T02:01:02;100134.38;;;13.96;100.00
9077;BME280;4574;51.072;17.174;2022-10-16T02:03:33;100126.88;;;13.99;100.00
9077;BME280;4574;51.072;17.174;2022-10-16T02:06:02;100133.03;;;14.00;100.00
9077;BME280;4574;51.072;17.174;2022-10-16T02:08:31;100123.41;;;13.99;100.00
9077;BME280;4574;51.072;17.174;2022-10-16T02:11:00;100125.06;;;14.00;100.00
9077;BME280;4574;51.072;17.174;2022-10-16T02:13:34;100123.72;;;14.04;100.00
9077;BME280;4574;51.072;17.174;2022-10-16T02:16:06;100123.06;;;14.02;100.00
9077;BME280;4574;51.072;17.174;2022-10-16T02:18:35;100134.34;;;14.04;100.00
9077;BME280;4574;51.072;17.174;2022-10-16T02:21:11;100137.03;;;14.04;100.00
9077;BME280;4574;51.072;17.174;2022-10-16T02:23:45;100136.38;;;14.02;100.00
9077;BME280;4574;51.072;17.174;2022-10-16T02:26:27;100136.03;;;14.05;100.00
9077;BME280;4574;51.072;17.174;2022-10-16T02:29:06;100137.03;;;14.04;100.00
9077;BME280;4574;51.072;17.174;2022-10-16T02:31:41;100139.84;;;14.02;100.00
9077;BME280;4574;51.072;17.174;2022-10-16T02:34:11;100146.66;;;14.05;100.00
9077;BME280;4574;51.072;17.174;2022-10-16T02:36:41;100154.66;;;14.05;100.00
9077;BME280;4574;51.072;17.174;2022-10-16T02:39:10;100152.00;;;14.05;100.00
9077;BME280;4574;51.072;17.174;2022-10-16T02:41:39;100156.31;;;14.06;100.00
9077;BME280;4574;51.072;17.174;2022-10-16T02:44:09;100165.13;;;14.06;100.00
9077;BME280;4574;51.072;17.174;2022-10-16T02:46:38;100166.97;;;14.06;100.00
9077;BME280;4574;51.072;17.174;2022-10-16T02:49:06;100148.00;;;14.01;100.00
9077;BME280;4574;51.072;17.174;2022-10-16T02:51:35;100156.31;;;14.06;100.00
9077;BME280;4574;51.072;17.174;2022-10-16T02:54:04;100159.63;;;14.08;100.00
9077;BME280;4574;51.072;17.174;2022-10-16T02:56:32;100157.78;;;14.08;100.00
9077;BME280;4574;51.072;17.174;2022-10-16T02:59:01;100156.44;;;14.12;100.00
9077;BME280;4574;51.072;17.174;2022-10-16T03:01:31;100154.78;;;14.11;100.00
9077;BME280;4574;51.072;17.174;2022-10-16T03:04:00;100165.97;;;14.15;100.00
9077;BME280;4574;51.072;17.174;2022-10-16T03:06:28;100160.66;;;14.15;100.00
9077;BME280;4574;51.072;17.174;2022-10-16T03:08:57;100160.66;;;14.15;100.00
9077;BME280;4574;51.072;17.174;2022-10-16T03:11:26;100155.13;;;14.16;100.00
9077;BME280;4574;51.072;17.174;2022-10-16T03:13:55;100168.94;;;14.20;100.00
9077;BME280;4574;51.072;17.174;2022-10-16T03:16:23;100171.63;;;14.20;100.00
9077;BME280;4574;51.072;17.174;2022-10-16T03:18:53;100178.25;;;14.24;100.00
9077;BME280;4574;51.072;17.174;2022-10-16T03:21:22;100172.28;;;14.22;100.00
9077;BME280;4574;51.072;17.174;2022-10-16T03:23:51;100177.25;;;14.25;100.00
9077;BME280;4574;51.072;17.174;2022-10-16T03:26:19;100180.59;;;14.27;100.00
9077;BME280;4574;51.072;17.174;2022-10-16T03:28:48;100178.72;;;14.27;100.00
9077;BME280;4574;51.072;17.174;2022-10-16T03:31:17;100187.22;;;14.31;100.00
9077;BME280;4574;51.072;17.174;2022-10-16T03:33:45;100184.38;;;14.32;100.00
9077;BME280;4574;51.072;17.174;2022-10-16T03:36:15;100188.53;;;14.35;100.00
9077;BME280;4574;51.072;17.174;2022-10-16T03:38:44;100191.88;;;14.37;100.00
9077;BME280;4574;51.072;17.174;2022-10-16T03:41:13;100182.53;;;14.41;100.00
9077;BME280;4574;51.072;17.174;2022-10-16T03:43:42;100191.53;;;14.40;100.00
9077;BME280;4574;51.072;17.174;2022-10-16T03:46:10;100178.53;;;14.45;100.00
9077;BME280;4574;51.072;17.174;2022-10-16T03:48:39;100193.50;;;14.46;100.00
9077;BME280;4574;51.072;17.174;2022-10-16T03:51:07;100202.34;;;14.46;100.00
9077;BME280;4574;51.072;17.174;2022-10-16T03:53:37;100204.00;;;14.47;100.00
9077;BME280;4574;51.072;17.174;2022-10-16T03:56:06;100188.50;;;14.51;100.00
9077;BME280;4574;51.072;17.174;2022-10-16T03:58:35;100192.16;;;14.50;100.00
9077;BME280;4574;51.072;17.174;2022-10-16T04:01:03;100200.81;;;14.52;100.00
9077;BME280;4574;51.072;17.174;2022-10-16T04:03:32;100193.47;;;14.54;100.00
9077;BME280;4574;51.072;17.174;2022-10-16T04:06:00;100192.16;;;14.50;100.00
9077;BME280;4574;51.072;17.174;2022-10-16T04:08:29;100197.81;;;14.47;100.00
9077;BME280;4574;51.072;17.174;2022-10-16T04:10:59;100200.16;;;14.42;100.00
9077;BME280;4574;51.072;17.174;2022-10-16T04:13:28;100200.97;;;14.42;100.00
9077;BME280;4574;51.072;17.174;2022-10-16T04:15:57;100192.84;;;14.44;100.00
9077;BME280;4574;51.072;17.174;2022-10-16T04:18:25;100205.50;;;14.42;100.00
9077;BME280;4574;51.072;17.174;2022-10-16T04:20:54;100211.63;;;14.42;100.00
9077;BME280;4574;51.072;17.174;2022-10-16T04:23:23;100215.50;;;14.40;100.00
9077;BME280;4574;51.072;17.174;2022-10-16T04:25:51;100213.16;;;14.45;100.00
9077;BME280;4574;51.072;17.174;2022-10-16T04:28:21;100212.31;;;14.44;100.00
9077;BME280;4574;51.072;17.174;2022-10-16T04:30:50;100205.19;;;14.37;100.00
9077;BME280;4574;51.072;17.174;2022-10-16T04:33:19;100215.97;;;14.43;100.00
9077;BME280;4574;51.072;17.174;2022-10-16T04:35:47;100210.50;;;14.37;100.00
9077;BME280;4574;51.072;17.174;2022-10-16T04:38:16;100213.31;;;14.35;100.00
9077;BME280;4574;51.072;17.174;2022-10-16T04:40:44;100206.53;;;14.33;100.00
9077;BME280;4574;51.072;17.174;2022-10-16T04:43:13;100222.16;;;14.36;100.00
9077;BME280;4574;51.072;17.174;2022-10-16T04:45:42;100221.31;;;14.35;100.00
9077;BME280;4574;51.072;17.174;2022-10-16T04:48:11;100232.81;;;14.36;100.00
9077;BME280;4574;51.072;17.174;2022-10-16T04:50:41;100234.81;;;14.34;100.00
9077;BME280;4574;51.072;17.174;2022-10-16T04:53:09;100239.97;;;14.27;100.00
9077;BME280;4574;51.072;17.174;2022-10-16T04:55:38;100238.81;;;14.30;100.00
9077;BME280;4574;51.072;17.174;2022-10-16T04:58:06;100242.47;;;14.29;100.00
9077;BME280;4574;51.072;17.174;2022-10-16T05:00:35;100237.63;;;14.32;100.00
9077;BME280;4574;51.072;17.174;2022-10-16T05:03:06;100219.53;;;14.28;100.00
9077;BME280;4574;51.072;17.174;2022-10-16T05:05:36;100225.31;;;14.31;100.00
9077;BME280;4574;51.072;17.174;2022-10-16T05:08:04;100223.66;;;14.30;100.00
9077;BME280;4574;51.072;17.174;2022-10-16T05:10:33;100233.50;;;14.30;100.00
9077;BME280;4574;51.072;17.174;2022-10-16T05:13:01;100232.31;;;14.24;100.00
9077;BME280;4574;51.072;17.174;2022-10-16T05:15:30;100243.97;;;14.23;100.00
9077;BME280;4574;51.072;17.174;2022-10-16T05:17:59;100245.31;;;14.27;100.00
9077;BME280;4574;51.072;17.174;2022-10-16T05:20:29;100246.97;;;14.28;100.00
9077;BME280;4574;51.072;17.174;2022-10-16T05:22:58;100250.81;;;14.26;100.00
9077;BME280;4574;51.072;17.174;2022-10-16T05:25:26;100257.94;;;14.25;100.00
9077;BME280;4574;51.072;17.174;2022-10-16T05:27:55;100244.81;;;14.24;100.00
9077;BME280;4574;51.072;17.174;2022-10-16T05:30:23;100240.84;;;14.20;100.00
9077;BME280;4574;51.072;17.174;2022-10-16T05:32:52;100250.16;;;14.24;100.00
9077;BME280;4574;51.072;17.174;2022-10-16T05:35:21;100250.16;;;14.24;100.00
9077;BME280;4574;51.072;17.174;2022-10-16T05:37:52;100248.50;;;14.23;100.00
9077;BME280;4574;51.072;17.174;2022-10-16T05:40:21;100248.50;;;14.23;100.00
9077;BME280;4574;51.072;17.174;2022-10-16T05:42:49;100246.16;;;14.20;100.00
9077;BME280;4574;51.072;17.174;2022-10-16T05:45:22;100256.63;;;14.21;100.00
9077;BME280;4574;51.072;17.174;2022-10-16T05:47:51;100248.81;;;14.20;100.00
9077;BME280;4574;51.072;17.174;2022-10-16T05:50:19;100239.50;;;14.16;100.00
9077;BME280;4574;51.072;17.174;2022-10-16T05:52:48;100248.50;;;14.15;100.00
9077;BME280;4574;51.072;17.174;2022-10-16T05:55:17;100245.84;;;14.15;100.00
9077;BME280;4574;51.072;17.174;2022-10-16T05:57:46;100259.13;;;14.23;100.00
9077;BME280;4574;51.072;17.174;2022-10-16T06:00:15;100251.16;;;14.23;100.00
9077;BME280;4574;51.072;17.174;2022-10-16T06:02:43;100260.28;;;14.28;100.00
9077;BME280;4574;51.072;17.174;2022-10-16T06:05:12;100263.44;;;14.32;100.00
9077;BME280;4574;51.072;17.174;2022-10-16T06:07:40;100274.09;;;14.32;100.00
9077;BME280;4574;51.072;17.174;2022-10-16T06:10:09;100278.75;;;14.38;100.00
9077;BME280;4574;51.072;17.174;2022-10-16T06:12:38;100280.91;;;14.42;100.00
9077;BME280;4574;51.072;17.174;2022-10-16T06:15:08;100279.41;;;14.48;100.00
9077;BME280;4574;51.072;17.174;2022-10-16T06:17:36;100260.78;;;14.40;100.00
9077;BME280;4574;51.072;17.174;2022-10-16T06:20:06;100282.03;;;14.56;100.00
9077;BME280;4574;51.072;17.174;2022-10-16T06:22:34;100293.03;;;14.61;100.00
9077;BME280;4574;51.072;17.174;2022-10-16T06:25:04;100282.53;;;14.67;100.00
9077;BME280;4574;51.072;17.174;2022-10-16T06:27:33;100290.66;;;14.73;100.00
9077;BME280;4574;51.072;17.174;2022-10-16T06:30:03;100289.47;;;14.84;100.00
9077;BME280;4574;51.072;17.174;2022-10-16T06:32:32;100295.09;;;14.89;100.00
9077;BME280;4574;51.072;17.174;2022-10-16T06:35:00;100294.09;;;14.90;100.00
9077;BME280;4574;51.072;17.174;2022-10-16T06:37:29;100298.91;;;14.94;100.00
9077;BME280;4574;51.072;17.174;2022-10-16T06:39:58;100299.41;;;14.98;100.00
9077;BME280;4574;51.072;17.174;2022-10-16T06:42:27;100304.84;;;15.04;100.00
9077;BME280;4574;51.072;17.174;2022-10-16T06:44:55;100310.16;;;15.12;100.00
9077;BME280;4574;51.072;17.174;2022-10-16T06:47:27;100311.66;;;15.15;100.00
9077;BME280;4574;51.072;17.174;2022-10-16T06:49:55;100312.63;;;15.22;100.00
9077;BME280;4574;51.072;17.174;2022-10-16T06:52:24;100315.13;;;15.31;100.00
9077;BME280;4574;51.072;17.174;2022-10-16T06:54:53;100324.44;;;15.35;100.00
9077;BME280;4574;51.072;17.174;2022-10-16T06:57:22;100325.75;;;15.39;100.00
9077;BME280;4574;51.072;17.174;2022-10-16T06:59:51;100333.22;;;15.44;100.00
9077;BME280;4574;51.072;17.174;2022-10-16T07:02:21;100338.06;;;15.48;100.00
9077;BME280;4574;51.072;17.174;2022-10-16T07:04:51;100338.50;;;15.52;100.00
9077;BME280;4574;51.072;17.174;2022-10-16T07:07:20;100337.50;;;15.53;100.00
9077;BME280;4574;51.072;17.174;2022-10-16T07:09:51;100341.84;;;15.54;100.00
9077;BME280;4574;51.072;17.174;2022-10-16T07:12:20;100344.66;;;15.60;100.00
9077;BME280;4574;51.072;17.174;2022-10-16T07:14:49;100354.97;;;15.63;100.00
9077;BME280;4574;51.072;17.174;2022-10-16T07:17:19;100350.28;;;15.65;100.00
9077;BME280;4574;51.072;17.174;2022-10-16T07:19:47;100351.75;;;15.68;100.00
9077;BME280;4574;51.072;17.174;2022-10-16T07:22:17;100337.09;;;15.64;100.00
9077;BME280;4574;51.072;17.174;2022-10-16T07:24:46;100341.97;;;15.60;100.00
9077;BME280;4574;51.072;17.174;2022-10-16T07:27:18;100356.75;;;15.71;100.00
9077;BME280;4574;51.072;17.174;2022-10-16T07:29:49;100359.25;;;15.72;100.00
9077;BME280;4574;51.072;17.174;2022-10-16T07:32:18;100365.25;;;15.74;100.00
9077;BME280;4574;51.072;17.174;2022-10-16T07:34:46;100357.06;;;15.76;100.00
9077;BME280;4574;51.072;17.174;2022-10-16T07:37:16;100357.72;;;15.78;100.00
9077;BME280;4574;51.072;17.174;2022-10-16T07:39:45;100358.00;;;15.83;100.00
9077;BME280;4574;51.072;17.174;2022-10-16T07:42:13;100357.50;;;15.87;100.00
9077;BME280;4574;51.072;17.174;2022-10-16T07:44:42;100358.81;;;15.91;100.00
9077;BME280;4574;51.072;17.174;2022-10-16T07:47:10;100360.09;;;15.95;100.00
9077;BME280;4574;51.072;17.174;2022-10-16T07:49:39;100357.09;;;15.98;100.00
9077;BME280;4574;51.072;17.174;2022-10-16T07:52:08;100366.03;;;16.05;100.00
9077;BME280;4574;51.072;17.174;2022-10-16T07:54:38;100355.38;;;16.05;100.00
9077;BME280;4574;51.072;17.174;2022-10-16T07:57:07;100357.63;;;16.16;100.00
9077;BME280;4574;51.072;17.174;2022-10-16T07:59:35;100360.59;;;16.21;100.00
9077;BME280;4574;51.072;17.174;2022-10-16T08:02:04;100365.22;;;16.27;100.00
9077;BME280;4574;51.072;17.174;2022-10-16T08:04:33;100368.16;;;16.32;100.00
9077;BME280;4574;51.072;17.174;2022-10-16T08:07:01;100374.84;;;16.36;100.00
9077;BME280;4574;51.072;17.174;2022-10-16T08:09:30;100362.44;;;16.43;100.00
9077;BME280;4574;51.072;17.174;2022-10-16T08:12:00;100364.75;;;16.46;100.00
9077;BME280;4574;51.072;17.174;2022-10-16T08:14:29;100364.88;;;16.52;100.00
9077;BME280;4574;51.072;17.174;2022-10-16T08:16:57;100367.47;;;16.60;100.00
9077;BME280;4574;51.072;17.174;2022-10-16T08:19:26;100375.56;;;16.67;100.00
9077;BME280;4574;51.072;17.174;2022-10-16T08:21:54;100373.19;;;16.72;100.00
9077;BME280;4574;51.072;17.174;2022-10-16T08:24:23;100380.47;;;16.78;100.00
9077;BME280;4574;51.072;17.174;2022-10-16T08:26:53;100374.47;;;16.76;100.00
9077;BME280;4574;51.072;17.174;2022-10-16T08:29:23;100381.41;;;16.85;100.00
9077;BME280;4574;51.072;17.174;2022-10-16T08:31:52;100385.66;;;16.94;100.00
9077;BME280;4574;51.072;17.174;2022-10-16T08:34:20;100388.16;;;16.95;100.00
9077;BME280;4574;51.072;17.174;2022-10-16T08:36:49;100392.78;;;17.01;100.00
9077;BME280;4574;51.072;17.174;2022-10-16T08:39:17;100389.56;;;17.06;100.00
9077;BME280;4574;51.072;17.174;2022-10-16T08:42:02;100394.19;;;17.12;100.00
9077;BME280;4574;51.072;17.174;2022-10-16T08:47:42;100396.41;;;17.23;100.00
9077;BME280;4574;51.072;17.174;2022-10-16T08:50:17;100393.16;;;17.27;100.00
9077;BME280;4574;51.072;17.174;2022-10-16T08:52:47;100393.63;;;17.31;100.00
9077;BME280;4574;51.072;17.174;2022-10-16T08:55:24;100406.66;;;17.34;100.00
9077;BME280;4574;51.072;17.174;2022-10-16T08:57:56;100409.78;;;17.37;100.00
9077;BME280;4574;51.072;17.174;2022-10-16T09:00:26;100397.91;;;17.40;100.00
9077;BME280;4574;51.072;17.174;2022-10-16T09:03:04;100409.88;;;17.44;100.00
9077;BME280;4574;51.072;17.174;2022-10-16T09:08:32;100408.78;;;17.52;100.00
9077;BME280;4574;51.072;17.174;2022-10-16T09:11:10;100417.06;;;17.57;100.00
9077;BME280;4574;51.072;17.174;2022-10-16T09:13:46;100411.53;;;17.59;100.00
9077;BME280;4574;51.072;17.174;2022-10-16T09:16:19;100420.94;;;17.69;100.00
9077;BME280;4574;51.072;17.174;2022-10-16T09:18:55;100426.56;;;17.74;100.00
9077;BME280;4574;51.072;17.174;2022-10-16T09:21:28;100424.97;;;17.80;100.00
9077;BME280;4574;51.072;17.174;2022-10-16T09:24:00;100422.38;;;17.86;100.00
9077;BME280;4574;51.072;17.174;2022-10-16T09:26:33;100421.25;;;17.95;100.00
9077;BME280;4574;51.072;17.174;2022-10-16T09:29:02;100423.38;;;18.00;100.00
9077;BME280;4574;51.072;17.174;2022-10-16T09:31:36;100439.13;;;18.09;100.00
9077;BME280;4574;51.072;17.174;2022-10-16T09:34:06;100427.47;;;18.17;100.00
9077;BME280;4574;51.072;17.174;2022-10-16T09:36:46;100429.41;;;18.23;100.00
9077;BME280;4574;51.072;17.174;2022-10-16T09:39:14;100430.75;;;18.33;100.00
9077;BME280;4574;51.072;17.174;2022-10-16T09:41:44;100429.34;;;18.37;100.00
9077;BME280;4574;51.072;17.174;2022-10-16T09:44:20;100423.69;;;18.47;100.00
9077;BME280;4574;51.072;17.174;2022-10-16T09:47:01;100428.47;;;18.51;100.00
9077;BME280;4574;51.072;17.174;2022-10-16T09:49:29;100429.72;;;18.55;100.00
9077;BME280;4574;51.072;17.174;2022-10-16T09:52:04;100433.13;;;18.64;100.00
9077;BME280;4574;51.072;17.174;2022-10-16T09:54:33;100427.81;;;18.70;100.00
9077;BME280;4574;51.072;17.174;2022-10-16T09:57:05;100420.03;;;18.75;100.00
9077;BME280;4574;51.072;17.174;2022-10-16T09:59:45;100421.56;;;18.84;100.00
9077;BME280;4574;51.072;17.174;2022-10-16T10:02:17;100420.94;;;18.88;100.00
9077;BME280;4574;51.072;17.174;2022-10-16T10:04:50;100425.16;;;18.97;100.00
9077;BME280;4574;51.072;17.174;2022-10-16T10:07:24;100420.22;;;19.01;100.00
9077;BME280;4574;51.072;17.174;2022-10-16T10:09:55;100421.50;;;19.05;100.00
9077;BME280;4574;51.072;17.174;2022-10-16T10:12:26;100424.53;;;19.23;100.00
9077;BME280;4574;51.072;17.174;2022-10-16T10:14:56;100422.34;;;19.33;100.00
9077;BME280;4574;51.072;17.174;2022-10-16T10:17:28;100423.84;;;19.48;100.00
9077;BME280;4574;51.072;17.174;2022-10-16T10:19:59;100424.34;;;19.65;100.00
9077;BME280;4574;51.072;17.174;2022-10-16T10:22:39;100415.72;;;19.76;100.00
9077;BME280;4574;51.072;17.174;2022-10-16T10:25:28;100425.31;;;19.98;100.00
9077;BME280;4574;51.072;17.174;2022-10-16T10:28:18;100423.53;;;20.18;100.00
9077;BME280;4574;51.072;17.174;2022-10-16T10:30:54;100424.66;;;20.42;100.00
9077;BME280;4574;51.072;17.174;2022-10-16T10:33:31;100427.16;;;20.63;100.00
9077;BME280;4574;51.072;17.174;2022-10-16T10:36:13;100423.88;;;20.87;100.00
9077;BME280;4574;51.072;17.174;2022-10-16T10:38:48;100426.78;;;21.05;100.00
9077;BME280;4574;51.072;17.174;2022-10-16T10:41:28;100431.91;;;21.20;100.00
9077;BME280;4574;51.072;17.174;2022-10-16T10:44:15;100430.88;;;21.27;100.00
9077;BME280;4574;51.072;17.174;2022-10-16T10:46:51;100430.84;;;21.40;100.00
9077;BME280;4574;51.072;17.174;2022-10-16T10:49:29;100426.88;;;21.49;100.00
9077;BME280;4574;51.072;17.174;2022-10-16T10:52:26;100432.25;;;21.62;100.00
9077;BME280;4574;51.072;17.174;2022-10-16T10:55:10;100427.63;;;21.82;100.00
9077;BME280;4574;51.072;17.174;2022-10-16T10:57:46;100416.78;;;21.95;100.00
9077;BME280;4574;51.072;17.174;2022-10-16T11:00:27;100422.53;;;22.05;100.00
9077;BME280;4574;51.072;17.174;2022-10-16T11:03:05;100426.84;;;22.19;100.00
9077;BME280;4574;51.072;17.174;2022-10-16T11:05:41;100426.78;;;22.32;100.00
9077;BME280;4574;51.072;17.174;2022-10-16T11:08:15;100418.00;;;22.43;100.00
9077;BME280;4574;51.072;17.174;2022-10-16T11:10:50;100419.66;;;22.44;100.00
9077;BME280;4574;51.072;17.174;2022-10-16T11:13:27;100431.63;;;22.54;100.00
9077;BME280;4574;51.072;17.174;2022-10-16T11:15:59;100419.56;;;22.57;99.52
9077;BME280;4574;51.072;17.174;2022-10-16T11:18:33;100411.25;;;22.58;100.00
9077;BME280;4574;51.072;17.174;2022-10-16T11:21:08;100415.38;;;22.61;100.00
9077;BME280;4574;51.072;17.174;2022-10-16T11:23:41;100418.91;;;22.61;99.04
9077;BME280;4574;51.072;17.174;2022-10-16T11:26:16;100421.13;;;22.71;100.00
9077;BME280;4574;51.072;17.174;2022-10-16T11:28:48;100425.63;;;22.77;98.83
9077;BME280;4574;51.072;17.174;2022-10-16T11:31:23;100412.34;;;22.75;99.11
9077;BME280;4574;51.072;17.174;2022-10-16T11:34:03;100427.34;;;22.71;96.77
9077;BME280;4574;51.072;17.174;2022-10-16T11:36:39;100416.63;;;22.58;97.57
9077;BME280;4574;51.072;17.174;2022-10-16T11:39:24;100408.88;;;22.44;97.41
9077;BME280;4574;51.072;17.174;2022-10-16T11:41:56;100408.94;;;22.31;99.36
9077;BME280;4574;51.072;17.174;2022-10-16T11:44:40;100420.09;;;22.34;98.54
9077;BME280;4574;51.072;17.174;2022-10-16T11:47:23;100414.28;;;22.44;98.43
9077;BME280;4574;51.072;17.174;2022-10-16T11:50:20;100421.00;;;22.59;98.38
9077;BME280;4574;51.072;17.174;2022-10-16T11:52:57;100415.13;;;22.69;97.67
9077;BME280;4574;51.072;17.174;2022-10-16T11:55:33;100411.31;;;22.76;98.46
9077;BME280;4574;51.072;17.174;2022-10-16T11:58:19;100401.50;;;22.82;97.16
9077;BME280;4574;51.072;17.174;2022-10-16T12:00:56;100395.94;;;22.77;97.45
9077;BME280;4574;51.072;17.174;2022-10-16T12:03:33;100408.94;;;22.62;96.34
9077;BME280;4574;51.072;17.174;2022-10-16T12:06:14;100419.75;;;22.62;97.82
9077;BME280;4574;51.072;17.174;2022-10-16T12:08:49;100418.78;;;22.50;98.15
9077;BME280;4574;51.072;17.174;2022-10-16T12:11:34;100424.88;;;22.39;97.55
9077;BME280;4574;51.072;17.174;2022-10-16T12:14:18;100426.34;;;22.35;97.62
9077;BME280;4574;51.072;17.174;2022-10-16T12:16:53;100417.22;;;22.29;97.84
9077;BME280;4574;51.072;17.174;2022-10-16T12:19:23;100422.25;;;22.26;98.47
9077;BME280;4574;51.072;17.174;2022-10-16T12:21:55;100429.13;;;22.15;98.89
9077;BME280;4574;51.072;17.174;2022-10-16T12:24:35;100438.34;;;22.01;98.78
9077;BME280;4574;51.072;17.174;2022-10-16T12:27:17;100448.09;;;21.96;99.30
9077;BME280;4574;51.072;17.174;2022-10-16T12:29:55;100454.16;;;21.91;99.77
9077;BME280;4574;51.072;17.174;2022-10-16T12:32:28;100455.81;;;21.86;99.33
9077;BME280;4574;51.072;17.174;2022-10-16T12:35:19;100456.91;;;21.72;100.00
9077;BME280;4574;51.072;17.174;2022-10-16T12:37:49;100464.78;;;21.67;100.00
9077;BME280;4574;51.072;17.174;2022-10-16T12:40:30;100469.38;;;21.67;100.00
9077;BME280;4574;51.072;17.174;2022-10-16T12:42:59;100477.88;;;21.64;100.00
9077;BME280;4574;51.072;17.174;2022-10-16T12:45:29;100476.19;;;21.56;100.00
9077;BME280;4574;51.072;17.174;2022-10-16T12:48:00;100474.75;;;21.47;100.00
9077;BME280;4574;51.072;17.174;2022-10-16T12:50:33;100478.09;;;21.43;100.00
9077;BME280;4574;51.072;17.174;2022-10-16T12:53:04;100471.88;;;21.42;100.00
9077;BME280;4574;51.072;17.174;2022-10-16T12:55:54;100471.88;;;21.42;100.00
9077;BME280;4574;51.072;17.174;2022-10-16T12:58:47;100478.94;;;21.37;100.00
9077;BME280;4574;51.072;17.174;2022-10-16T13:01:37;100481.84;;;21.35;100.00
9077;BME280;4574;51.072;17.174;2022-10-16T13:04:36;100480.19;;;21.34;100.00
9077;BME280;4574;51.072;17.174;2022-10-16T13:07:25;100479.34;;;21.34;100.00
9077;BME280;4574;51.072;17.174;2022-10-16T13:10:05;100482.25;;;21.32;100.00
9077;BME280;4574;51.072;17.174;2022-10-16T13:12:56;100481.63;;;21.30;100.00
9077;BME280;4574;51.072;17.174;2022-10-16T13:15:38;100481.00;;;21.28;100.00
9077;BME280;4574;51.072;17.174;2022-10-16T13:18:14;100490.13;;;21.27;100.00
9077;BME280;4574;51.072;17.174;2022-10-16T13:20:58;100488.66;;;21.25;100.00
9077;BME280;4574;51.072;17.174;2022-10-16T13:23:33;100480.19;;;21.08;100.00